createdAt,value
2023-05-22T00:00:47.404Z,0.61
2023-05-22T00:01:47.456Z,0.61
2023-05-22T00:02:47.489Z,0.62
2023-05-22T00:03:47.384Z,0.62
2023-05-22T00:04:47.482Z,0.62
2023-05-22T00:05:47.367Z,0.62
2023-05-22T00:06:47.376Z,0.62
2023-05-22T00:07:47.412Z,0.62
2023-05-22T00:08:47.385Z,0.62
2023-05-22T00:09:47.404Z,0.61
2023-05-22T00:10:47.426Z,0.61
2023-05-22T00:11:47.448Z,0.61
2023-05-22T00:12:47.382Z,0.60
2023-05-22T00:13:47.381Z,0.60
2023-05-22T00:14:47.448Z,0.60
2023-05-22T00:15:47.456Z,0.61
2023-05-22T00:16:47.541Z,0.60
2023-05-22T00:17:47.594Z,0.60
2023-05-22T00:18:47.617Z,0.60
2023-05-22T00:19:47.576Z,0.60
2023-05-22T00:20:47.576Z,0.60
2023-05-22T00:21:47.572Z,0.60
2023-05-22T00:22:47.583Z,0.60
2023-05-22T00:23:47.617Z,0.60
2023-05-22T00:24:47.606Z,0.61
2023-05-22T00:25:47.623Z,0.62
2023-05-22T00:26:47.626Z,0.60
2023-05-22T00:27:47.623Z,0.62
2023-05-22T00:28:47.640Z,0.60
2023-05-22T00:29:47.648Z,0.60
2023-05-22T00:30:47.616Z,0.61
2023-05-22T00:31:47.608Z,0.60
2023-05-22T00:32:47.643Z,0.60
2023-05-22T00:33:47.620Z,0.60
2023-05-22T00:34:47.784Z,0.60
2023-05-22T00:35:47.654Z,0.59
2023-05-22T00:36:47.589Z,0.59
2023-05-22T00:37:47.620Z,0.60
2023-05-22T00:38:47.601Z,0.59
2023-05-22T00:39:47.609Z,0.61
2023-05-22T00:40:47.616Z,0.60
2023-05-22T00:41:47.620Z,0.60
2023-05-22T00:42:47.630Z,0.60
2023-05-22T00:43:47.653Z,0.59
2023-05-22T00:44:47.635Z,0.59
2023-05-22T00:45:47.651Z,0.60
2023-05-22T00:46:47.790Z,0.60
2023-05-22T00:47:47.671Z,0.59
2023-05-22T00:48:47.673Z,0.60
2023-05-22T00:49:47.697Z,0.60
2023-05-22T00:50:47.679Z,0.60
2023-05-22T00:51:47.649Z,0.61
2023-05-22T00:52:47.685Z,0.61
2023-05-22T00:53:47.664Z,0.60
2023-05-22T00:54:47.681Z,0.59
2023-05-22T00:55:47.673Z,0.60
2023-05-22T00:56:47.644Z,0.59
2023-05-22T00:57:47.697Z,0.60
2023-05-22T00:58:47.691Z,0.60
2023-05-22T00:59:47.710Z,0.59
2023-05-22T01:00:47.725Z,0.60
2023-05-22T01:01:47.740Z,0.60
2023-05-22T01:02:47.829Z,0.59
2023-05-22T01:03:47.897Z,0.60
2023-05-22T01:04:47.750Z,0.60
2023-05-22T01:05:47.749Z,0.58
2023-05-22T01:06:47.806Z,0.60
2023-05-22T01:07:47.772Z,0.59
2023-05-22T01:08:47.716Z,0.59
2023-05-22T01:09:47.717Z,0.60
2023-05-22T01:10:47.673Z,0.60
2023-05-22T01:11:47.719Z,0.59
2023-05-22T01:12:47.743Z,0.61
2023-05-22T01:13:47.742Z,0.61
2023-05-22T01:14:47.752Z,0.61
2023-05-22T01:15:47.852Z,0.60
2023-05-22T01:16:47.849Z,0.61
2023-05-22T01:17:47.820Z,0.60
2023-05-22T01:18:47.791Z,0.59
2023-05-22T01:19:47.826Z,0.60
2023-05-22T01:20:48.763Z,0.60
2023-05-22T01:21:47.758Z,0.59
2023-05-22T01:22:47.773Z,0.61
2023-05-22T01:23:47.767Z,0.60
2023-05-22T01:24:47.777Z,0.60
2023-05-22T01:25:47.790Z,0.60
2023-05-22T01:26:47.788Z,0.59
2023-05-22T01:27:47.755Z,0.60
2023-05-22T01:28:47.740Z,0.58
2023-05-22T01:29:47.854Z,0.59
2023-05-22T01:30:47.824Z,0.61
2023-05-22T01:31:47.786Z,0.60
2023-05-22T01:32:47.931Z,0.60
2023-05-22T01:33:47.973Z,0.60
2023-05-22T01:34:47.804Z,0.60
2023-05-22T01:35:47.799Z,0.60
2023-05-22T01:36:47.801Z,0.60
2023-05-22T01:37:47.814Z,0.59
2023-05-22T01:38:47.820Z,0.58
2023-05-22T01:39:47.828Z,0.60
2023-05-22T01:40:47.830Z,0.59
2023-05-22T01:41:47.833Z,0.60
2023-05-22T01:42:47.850Z,0.58
2023-05-22T01:43:47.852Z,0.59
2023-05-22T01:44:47.849Z,0.59
2023-05-22T01:45:47.890Z,0.59
2023-05-22T01:46:47.868Z,0.60
2023-05-22T01:47:47.900Z,0.59
2023-05-22T01:48:47.909Z,0.58
2023-05-22T01:49:47.948Z,0.59
2023-05-22T01:50:48.127Z,0.60
2023-05-22T01:51:47.963Z,0.59
2023-05-22T01:52:47.967Z,0.59
2023-05-22T01:53:47.964Z,0.60
2023-05-22T01:54:47.982Z,0.59
2023-05-22T01:55:47.952Z,0.59
2023-05-22T01:56:48.004Z,0.60
2023-05-22T01:57:48.011Z,0.60
2023-05-22T01:58:48.023Z,0.59
2023-05-22T01:59:48.066Z,0.59
2023-05-22T02:00:48.052Z,0.59
2023-05-22T02:01:48.112Z,0.59
2023-05-22T02:02:48.209Z,0.59
2023-05-22T02:03:48.155Z,0.60
2023-05-22T02:04:48.094Z,0.59
2023-05-22T02:05:48.111Z,0.60
2023-05-22T02:06:48.129Z,0.59
2023-05-22T02:07:48.121Z,0.59
2023-05-22T02:08:48.112Z,0.60
2023-05-22T02:09:48.123Z,0.59
2023-05-22T02:10:48.202Z,0.60
2023-05-22T02:11:48.200Z,0.60
2023-05-22T02:12:48.155Z,0.60
2023-05-22T02:13:48.165Z,0.59
2023-05-22T02:14:48.241Z,0.60
2023-05-22T02:15:48.260Z,0.60
2023-05-22T02:16:48.245Z,0.59
2023-05-22T02:17:48.273Z,0.60
2023-05-22T02:18:48.247Z,0.59
2023-05-22T02:19:48.270Z,0.60
2023-05-22T02:20:48.269Z,0.60
2023-05-22T02:21:48.272Z,0.60
2023-05-22T02:22:48.275Z,0.59
2023-05-22T02:23:48.288Z,0.59
2023-05-22T02:24:48.336Z,0.59
2023-05-22T02:25:48.308Z,0.60
2023-05-22T02:26:48.348Z,0.59
2023-05-22T02:27:48.356Z,0.59
2023-05-22T02:28:48.369Z,0.60
2023-05-22T02:29:48.369Z,0.60
2023-05-22T02:30:48.401Z,0.60
2023-05-22T02:31:48.564Z,0.59
2023-05-22T02:32:48.471Z,0.59
2023-05-22T02:33:48.432Z,0.59
2023-05-22T02:34:48.455Z,0.59
2023-05-22T02:35:48.501Z,0.59
2023-05-22T02:36:48.514Z,0.60
2023-05-22T02:37:48.519Z,0.60
2023-05-22T02:38:48.673Z,0.59
2023-05-22T02:39:48.556Z,0.60
2023-05-22T02:40:48.515Z,0.60
2023-05-22T02:41:48.575Z,0.58
2023-05-22T02:42:48.572Z,0.60
2023-05-22T02:43:48.577Z,0.59
2023-05-22T02:44:48.636Z,0.59
2023-05-22T02:45:48.640Z,0.60
2023-05-22T02:46:48.722Z,0.60
2023-05-22T02:47:48.667Z,0.58
2023-05-22T02:48:48.659Z,0.58
2023-05-22T02:49:48.726Z,0.60
2023-05-22T02:50:48.724Z,0.60
2023-05-22T02:51:48.721Z,0.59
2023-05-22T02:52:48.740Z,0.60
2023-05-22T02:53:48.735Z,0.59
2023-05-22T02:54:48.747Z,0.60
2023-05-22T02:55:48.762Z,0.60
2023-05-22T02:56:48.781Z,0.59
2023-05-22T02:57:48.843Z,0.59
2023-05-22T02:58:48.780Z,0.60
2023-05-22T02:59:48.841Z,0.60
2023-05-22T03:00:48.858Z,0.59
2023-05-22T03:01:48.888Z,0.59
2023-05-22T03:02:48.910Z,0.58
2023-05-22T03:03:49.024Z,0.59
2023-05-22T03:04:48.914Z,0.59
2023-05-22T03:05:48.923Z,0.59
2023-05-22T03:06:48.926Z,0.60
2023-05-22T03:07:49.043Z,0.59
2023-05-22T03:08:48.940Z,0.59
2023-05-22T03:09:49.038Z,0.58
2023-05-22T03:10:49.035Z,0.59
2023-05-22T03:11:49.065Z,0.59
2023-05-22T03:12:49.038Z,0.59
2023-05-22T03:13:49.036Z,0.58
2023-05-22T03:14:49.091Z,0.60
2023-05-22T03:15:49.102Z,0.60
2023-05-22T03:16:49.246Z,0.59
2023-05-22T03:17:49.227Z,0.59
2023-05-22T03:18:49.205Z,0.60
2023-05-22T03:19:49.184Z,0.59
2023-05-22T03:20:49.186Z,0.59
2023-05-22T03:21:49.208Z,0.59
2023-05-22T03:22:49.245Z,0.58
2023-05-22T03:23:49.257Z,0.59
2023-05-22T03:24:49.258Z,0.59
2023-05-22T03:25:49.274Z,0.59
2023-05-22T03:26:49.309Z,0.60
2023-05-22T03:27:49.343Z,0.59
2023-05-22T03:28:49.332Z,0.59
2023-05-22T03:29:49.364Z,0.59
2023-05-22T03:30:49.359Z,0.59
2023-05-22T03:31:49.368Z,0.59
2023-05-22T03:32:49.455Z,0.59
2023-05-22T03:33:49.462Z,0.58
2023-05-22T03:34:49.423Z,0.59
2023-05-22T03:35:49.447Z,0.58
2023-05-22T03:36:49.476Z,0.58
2023-05-22T03:37:49.513Z,0.59
2023-05-22T03:38:49.519Z,0.58
2023-05-22T03:39:49.567Z,0.59
2023-05-22T03:40:49.577Z,0.57
2023-05-22T03:41:49.580Z,0.59
2023-05-22T03:42:49.634Z,0.60
2023-05-22T03:43:49.601Z,0.59
2023-05-22T03:44:49.598Z,0.58
2023-05-22T03:45:49.728Z,0.59
2023-05-22T03:46:49.724Z,0.58
2023-05-22T03:47:49.767Z,0.59
2023-05-22T03:48:49.734Z,0.60
2023-05-22T03:49:49.731Z,0.60
2023-05-22T03:50:49.776Z,0.58
2023-05-22T03:51:49.767Z,0.59
2023-05-22T03:52:49.803Z,0.58
2023-05-22T03:53:49.833Z,0.56
2023-05-22T03:54:49.828Z,0.58
2023-05-22T03:55:49.841Z,0.58
2023-05-22T03:56:49.899Z,0.57
2023-05-22T03:57:49.850Z,0.57
2023-05-22T03:58:49.864Z,0.57
2023-05-22T03:59:49.868Z,0.56
2023-05-22T04:00:49.919Z,0.57
2023-05-22T04:01:49.978Z,0.57
2023-05-22T04:02:50.107Z,0.55
2023-05-22T04:03:50.090Z,0.55
2023-05-22T04:04:50.155Z,0.54
2023-05-22T04:05:50.210Z,0.53
2023-05-22T04:06:50.231Z,0.52
2023-05-22T04:07:50.273Z,0.51
2023-05-22T04:08:50.278Z,0.51
2023-05-22T04:09:50.337Z,0.50
2023-05-22T04:10:50.351Z,0.50
2023-05-22T04:11:50.360Z,0.50
2023-05-22T04:12:50.379Z,0.50
2023-05-22T04:13:50.430Z,0.50
2023-05-22T04:14:50.470Z,0.50
2023-05-22T04:15:50.523Z,0.51
2023-05-22T04:16:50.720Z,0.50
2023-05-22T04:17:50.644Z,0.50
2023-05-22T04:18:50.671Z,0.51
2023-05-22T04:19:50.720Z,0.50
2023-05-22T04:20:50.768Z,0.50
2023-05-22T04:21:50.838Z,0.51
2023-05-22T04:22:50.833Z,0.50
2023-05-22T04:23:50.892Z,0.50
2023-05-22T04:24:50.903Z,0.50
2023-05-22T04:25:50.956Z,0.50
2023-05-22T04:26:50.963Z,0.51
2023-05-22T04:27:51.033Z,0.51
2023-05-22T04:28:51.033Z,0.49
2023-05-22T04:29:51.033Z,0.51
2023-05-22T04:30:51.083Z,0.51
2023-05-22T04:31:51.048Z,0.50
2023-05-22T04:32:51.105Z,0.50
2023-05-22T04:33:51.120Z,0.51
2023-05-22T04:34:51.228Z,0.51
2023-05-22T04:35:51.183Z,0.52
2023-05-22T04:36:51.250Z,0.52
2023-05-22T04:37:51.258Z,0.51
2023-05-22T04:38:51.258Z,0.52
2023-05-22T04:39:51.275Z,0.51
2023-05-22T04:40:51.274Z,0.51
2023-05-22T04:41:51.274Z,0.52
2023-05-22T04:42:51.288Z,0.52
2023-05-22T04:43:51.401Z,0.52
2023-05-22T04:44:51.447Z,0.53
2023-05-22T04:45:51.476Z,0.53
2023-05-22T04:46:51.570Z,0.53
2023-05-22T04:47:51.612Z,0.54
2023-05-22T04:48:51.581Z,0.55
2023-05-22T04:49:51.588Z,0.55
2023-05-22T04:50:51.645Z,0.54
2023-05-22T04:51:51.657Z,0.54
2023-05-22T04:52:51.679Z,0.56
2023-05-22T04:53:51.707Z,0.56
2023-05-22T04:54:51.732Z,0.57
2023-05-22T04:55:51.679Z,0.57
2023-05-22T04:56:51.729Z,0.56
2023-05-22T04:57:51.740Z,0.59
2023-05-22T04:58:51.753Z,0.58
2023-05-22T04:59:51.756Z,0.56
2023-05-22T05:00:51.766Z,0.56
2023-05-22T05:01:51.765Z,0.56
2023-05-22T05:02:51.985Z,0.55
2023-05-22T05:03:51.904Z,0.54
2023-05-22T05:04:51.890Z,0.55
2023-05-22T05:05:51.901Z,0.53
2023-05-22T05:06:51.960Z,0.52
2023-05-22T05:07:51.971Z,0.51
2023-05-22T05:08:52.018Z,0.51
2023-05-22T05:09:52.097Z,0.51
2023-05-22T05:10:52.142Z,0.51
2023-05-22T05:11:52.173Z,0.50
2023-05-22T05:12:52.176Z,0.51
2023-05-22T05:13:52.211Z,0.50
2023-05-22T05:14:52.215Z,0.50
2023-05-22T05:15:52.259Z,0.50
2023-05-22T05:16:52.318Z,0.51
2023-05-22T05:17:52.392Z,0.50
2023-05-22T05:18:52.362Z,0.51
2023-05-22T05:19:52.295Z,0.51
2023-05-22T05:20:52.318Z,0.50
2023-05-22T05:21:52.314Z,0.51
2023-05-22T05:22:52.311Z,0.50
2023-05-22T05:23:52.341Z,0.50
2023-05-22T05:24:52.403Z,0.52
2023-05-22T05:25:52.371Z,0.51
2023-05-22T05:26:52.417Z,0.51
2023-05-22T05:27:52.380Z,0.51
2023-05-22T05:28:52.409Z,0.51
2023-05-22T05:29:52.419Z,0.51
2023-05-22T05:30:52.532Z,0.50
2023-05-22T05:31:52.563Z,0.50
2023-05-22T05:32:52.590Z,0.50
2023-05-22T05:33:52.529Z,0.51
2023-05-22T05:34:52.582Z,0.50
2023-05-22T05:35:52.681Z,0.51
2023-05-22T05:36:52.661Z,0.51
2023-05-22T05:37:52.755Z,0.51
2023-05-22T05:38:52.802Z,0.50
2023-05-22T05:39:52.846Z,0.52
2023-05-22T05:40:52.996Z,0.50
2023-05-22T05:41:52.974Z,0.51
2023-05-22T05:42:52.968Z,0.50
2023-05-22T05:43:53.096Z,0.51
2023-05-22T05:44:53.092Z,0.52
2023-05-22T05:45:53.270Z,0.51
2023-05-22T05:46:53.247Z,0.51
2023-05-22T05:47:53.304Z,0.51
2023-05-22T05:48:53.290Z,0.52
2023-05-22T05:49:53.352Z,0.50
2023-05-22T05:50:53.339Z,0.50
2023-05-22T05:51:53.491Z,0.50
2023-05-22T05:52:53.350Z,0.51
2023-05-22T05:53:53.356Z,0.51
2023-05-22T05:54:53.343Z,0.54
2023-05-22T05:55:53.322Z,0.54
2023-05-22T05:56:53.354Z,0.54
2023-05-22T05:57:53.381Z,0.55
2023-05-22T05:58:53.448Z,0.54
2023-05-22T05:59:53.445Z,0.54
2023-05-22T06:00:53.462Z,0.54
2023-05-22T06:01:53.476Z,0.53
2023-05-22T06:02:53.598Z,0.55
2023-05-22T06:03:53.825Z,0.54
2023-05-22T06:04:53.696Z,0.56
2023-05-22T06:05:53.669Z,0.56
2023-05-22T06:06:53.794Z,0.55
2023-05-22T06:07:53.744Z,0.56
2023-05-22T06:08:53.830Z,0.57
2023-05-22T06:09:53.884Z,0.58
2023-05-22T06:10:53.986Z,0.58
2023-05-22T06:11:54.002Z,0.59
2023-05-22T06:12:54.063Z,0.59
2023-05-22T06:13:54.111Z,0.61
2023-05-22T06:14:54.183Z,0.62
2023-05-22T06:15:54.296Z,0.61
2023-05-22T06:16:54.529Z,0.65
2023-05-22T06:17:54.440Z,0.67
2023-05-22T06:18:54.518Z,0.67
2023-05-22T06:19:54.514Z,0.67
2023-05-22T06:20:54.520Z,0.68
2023-05-22T06:21:54.626Z,0.68
2023-05-22T06:22:54.702Z,0.70
2023-05-22T06:23:54.750Z,0.71
2023-05-22T06:24:54.899Z,0.72
2023-05-22T06:25:54.827Z,0.72
2023-05-22T06:26:54.887Z,0.73
2023-05-22T06:27:54.963Z,0.76
2023-05-22T06:28:54.989Z,0.76
2023-05-22T06:29:56.331Z,0.79
2023-05-22T06:30:55.135Z,0.80
2023-05-22T06:31:55.203Z,0.81
2023-05-22T06:32:55.257Z,0.81
2023-05-22T06:33:55.458Z,0.81
2023-05-22T06:34:55.369Z,0.83
2023-05-22T06:35:55.421Z,0.82
2023-05-22T06:36:55.466Z,0.85
2023-05-22T06:37:55.576Z,0.84
2023-05-22T06:38:55.620Z,0.85
2023-05-22T06:39:56.361Z,0.89
2023-05-22T06:40:55.586Z,0.86
2023-05-22T06:41:55.656Z,0.86
2023-05-22T06:42:55.783Z,0.87
2023-05-22T06:43:55.861Z,0.87
2023-05-22T06:44:56.044Z,0.89
2023-05-22T06:45:55.928Z,0.89
2023-05-22T06:46:55.961Z,0.88
2023-05-22T06:47:56.462Z,0.86
2023-05-22T06:48:56.073Z,0.84
2023-05-22T06:49:56.096Z,0.85
2023-05-22T06:50:56.138Z,0.85
2023-05-22T06:51:56.165Z,0.85
2023-05-22T06:52:56.294Z,0.87
2023-05-22T06:53:56.337Z,0.86
2023-05-22T06:54:56.385Z,0.88
2023-05-22T06:55:56.348Z,0.85
2023-05-22T06:56:56.410Z,0.83
2023-05-22T06:57:56.978Z,0.83
2023-05-22T06:58:56.570Z,0.82
2023-05-22T06:59:56.633Z,0.81
2023-05-22T07:00:56.650Z,0.78
2023-05-22T07:01:56.742Z,0.77
2023-05-22T07:02:56.862Z,0.78
2023-05-22T07:03:56.934Z,0.77
2023-05-22T07:04:56.837Z,0.78
2023-05-22T07:05:57.001Z,0.78
2023-05-22T07:06:56.934Z,0.77
2023-05-22T07:07:57.005Z,0.75
2023-05-22T07:08:57.088Z,0.73
2023-05-22T07:09:57.160Z,0.74
2023-05-22T07:10:57.272Z,0.73
2023-05-22T07:11:57.231Z,0.71
2023-05-22T07:12:57.303Z,0.71
2023-05-22T07:13:57.434Z,0.67
2023-05-22T07:14:57.437Z,0.66
2023-05-22T07:15:57.560Z,0.66
2023-05-22T07:16:57.606Z,0.67
2023-05-22T07:17:57.699Z,0.65
2023-05-22T07:18:57.775Z,0.65
2023-05-22T07:19:57.710Z,0.64
2023-05-22T07:20:57.813Z,0.61
2023-05-22T07:21:57.833Z,0.62
2023-05-22T07:22:57.944Z,0.61
2023-05-22T07:23:57.945Z,0.61
2023-05-22T07:24:58.055Z,0.59
2023-05-22T07:25:58.075Z,0.62
2023-05-22T07:26:58.155Z,0.61
2023-05-22T07:27:58.688Z,0.63
2023-05-22T07:28:58.475Z,0.63
2023-05-22T07:29:58.460Z,0.63
2023-05-22T07:30:58.391Z,0.62
2023-05-22T07:31:58.588Z,0.62
2023-05-22T07:32:59.039Z,0.64
2023-05-22T07:33:58.653Z,0.57
2023-05-22T07:34:59.874Z,0.51
2023-05-22T07:35:58.752Z,0.53
2023-05-22T07:36:58.782Z,0.52
2023-05-22T07:37:58.844Z,0.50
2023-05-22T07:38:58.959Z,0.50
2023-05-22T07:39:59.019Z,0.50
2023-05-22T07:40:59.061Z,0.51
2023-05-22T07:41:59.563Z,0.50
2023-05-22T07:42:59.260Z,0.51
2023-05-22T07:43:59.184Z,0.51
2023-05-22T07:44:59.298Z,0.51
2023-05-22T07:45:59.284Z,0.52
2023-05-22T07:46:59.325Z,0.51
2023-05-22T07:48:00.577Z,0.50
2023-05-22T07:48:59.539Z,0.51
2023-05-22T07:49:59.545Z,0.52
2023-05-22T07:50:59.526Z,0.50
2023-05-22T07:51:59.561Z,0.52
2023-05-22T07:52:59.629Z,0.52
2023-05-22T07:54:59.741Z,0.51
2023-05-22T07:55:59.676Z,0.52
2023-05-22T07:56:59.768Z,0.53
2023-05-22T07:57:59.761Z,0.54
2023-05-22T07:58:59.929Z,0.52
2023-05-22T07:59:59.923Z,0.52
2023-05-22T08:00:59.878Z,0.51
2023-05-22T08:01:59.914Z,0.51
2023-05-22T08:03:00.204Z,0.52
2023-05-22T08:04:00.142Z,0.50
2023-05-22T08:05:00.571Z,0.52
2023-05-22T08:06:00.481Z,0.53
2023-05-22T08:07:00.110Z,0.53
2023-05-22T08:08:00.153Z,0.51
2023-05-22T08:09:00.171Z,0.50
2023-05-22T08:10:00.228Z,0.52
2023-05-22T08:11:04.090Z,0.51
2023-05-22T08:12:00.298Z,0.51
2023-05-22T08:13:00.293Z,0.49
2023-05-22T08:14:00.201Z,0.45
2023-05-22T08:15:00.224Z,0.39
2023-05-22T08:16:01.371Z,0.40
2023-05-22T08:17:00.231Z,0.47
2023-05-22T08:18:00.260Z,0.52
2023-05-22T08:19:00.288Z,0.52
2023-05-22T08:20:00.357Z,0.53
2023-05-22T08:21:00.230Z,0.54
2023-05-22T08:22:00.164Z,0.54
2023-05-22T08:23:00.128Z,0.54
2023-05-22T08:24:00.153Z,0.55
2023-05-22T08:25:00.478Z,0.54
2023-05-22T08:26:00.162Z,0.51
2023-05-22T08:27:00.119Z,0.38
2023-05-22T08:28:00.112Z,0.45
2023-05-22T08:29:00.149Z,0.37
2023-05-22T08:30:00.544Z,0.34
2023-05-22T08:31:00.118Z,0.39
2023-05-22T08:32:00.201Z,0.50
2023-05-22T08:33:00.226Z,0.52
2023-05-22T08:34:00.185Z,0.59
2023-05-22T08:35:00.519Z,0.58
2023-05-22T08:36:00.047Z,0.54
2023-05-22T08:37:00.077Z,0.42
2023-05-22T08:38:00.119Z,0.47
2023-05-22T08:39:00.136Z,0.54
2023-05-22T08:40:00.238Z,0.59
2023-05-22T08:41:00.211Z,0.49
2023-05-22T08:42:00.194Z,0.54
2023-05-22T08:43:00.219Z,0.50
2023-05-22T08:44:00.212Z,0.52
2023-05-22T08:45:00.301Z,0.58
2023-05-22T08:46:00.482Z,0.64
2023-05-22T08:47:00.502Z,0.62
2023-05-22T08:48:00.717Z,0.64
2023-05-22T08:49:00.458Z,0.69
2023-05-22T08:50:00.506Z,0.76
2023-05-22T08:51:00.544Z,0.80
2023-05-22T08:52:00.554Z,0.84
2023-05-22T08:53:00.644Z,0.85
2023-05-22T08:54:00.648Z,0.81
2023-05-22T08:55:00.692Z,0.82
2023-05-22T08:56:00.828Z,0.80
2023-05-22T08:57:00.768Z,0.73
2023-05-22T08:58:00.805Z,0.73
2023-05-22T08:59:00.984Z,0.79
2023-05-22T09:00:00.916Z,0.68
2023-05-22T09:01:00.893Z,0.72
2023-05-22T09:02:00.913Z,0.81
2023-05-22T09:03:01.011Z,0.72
2023-05-22T09:04:01.213Z,0.71
2023-05-22T09:05:00.977Z,0.80
2023-05-22T09:06:01.000Z,0.89
2023-05-22T09:07:01.497Z,0.93
2023-05-22T09:08:15.867Z,0.99
2023-05-22T09:09:02.052Z,0.99
2023-05-22T09:10:01.040Z,1.01
2023-05-22T09:11:01.052Z,1.03
2023-05-22T09:12:01.555Z,1.11
2023-05-22T09:13:01.118Z,1.33
2023-05-22T09:14:01.031Z,1.36
2023-05-22T09:15:01.043Z,1.48
2023-05-22T09:16:01.044Z,1.54
2023-05-22T09:17:01.076Z,1.51
2023-05-22T09:18:01.062Z,1.61
2023-05-22T09:19:00.988Z,1.67
2023-05-22T09:20:00.985Z,1.83
2023-05-22T09:21:00.988Z,1.63
2023-05-22T09:22:00.942Z,1.66
2023-05-22T09:23:01.012Z,1.49
2023-05-22T09:24:01.119Z,1.22
2023-05-22T09:25:01.181Z,1.33
2023-05-22T09:26:00.967Z,1.58
2023-05-22T09:27:01.007Z,1.61
2023-05-22T09:28:00.885Z,1.76
2023-05-22T09:29:01.050Z,1.86
2023-05-22T09:30:01.079Z,2.06
2023-05-22T09:31:03.830Z,2.24
2023-05-22T09:32:00.877Z,2.39
2023-05-22T09:33:00.967Z,2.26
2023-05-22T09:34:00.880Z,2.33
2023-05-22T09:35:01.091Z,2.41
2023-05-22T09:36:00.909Z,1.43
2023-05-22T09:37:00.872Z,1.30
2023-05-22T09:38:00.929Z,1.29
2023-05-22T09:39:00.828Z,1.33
2023-05-22T09:40:01.032Z,1.44
2023-05-22T09:41:01.051Z,1.50
2023-05-22T09:42:00.854Z,1.56
2023-05-22T09:43:00.824Z,1.65
2023-05-22T09:44:02.151Z,1.64
2023-05-22T09:45:00.818Z,1.75
2023-05-22T09:46:01.008Z,1.88
2023-05-22T09:47:00.850Z,1.96
2023-05-22T09:48:00.894Z,1.94
2023-05-22T09:49:00.847Z,2.04
2023-05-22T09:50:00.803Z,2.08
2023-05-22T09:51:00.801Z,1.67
2023-05-22T09:52:00.899Z,1.96
2023-05-22T09:53:02.373Z,1.98
2023-05-22T09:54:01.015Z,2.11
2023-05-22T09:55:00.729Z,2.39
2023-05-22T09:56:00.702Z,2.78
2023-05-22T09:57:00.723Z,2.79
2023-05-22T09:58:00.707Z,2.76
2023-05-22T09:59:00.689Z,3.02
2023-05-22T10:00:00.753Z,2.72
2023-05-22T10:01:00.742Z,2.89
2023-05-22T10:02:00.822Z,2.90
2023-05-22T10:03:00.863Z,3.05
2023-05-22T10:04:00.901Z,3.06
2023-05-22T10:05:01.002Z,3.32
2023-05-22T10:06:01.012Z,3.03
2023-05-22T10:07:01.066Z,3.05
2023-05-22T10:08:01.089Z,3.51
2023-05-22T10:09:01.191Z,3.60
2023-05-22T10:10:01.259Z,3.74
2023-05-22T10:11:01.261Z,3.43
2023-05-22T10:12:01.349Z,3.29
2023-05-22T10:13:01.411Z,3.86
2023-05-22T10:14:01.465Z,3.99
2023-05-22T10:15:01.514Z,3.75
2023-05-22T10:16:03.556Z,4.15
2023-05-22T10:17:01.672Z,4.26
2023-05-22T10:18:01.776Z,4.11
2023-05-22T10:19:01.830Z,4.42
2023-05-22T10:20:02.149Z,6.05
2023-05-22T10:21:01.888Z,8.63
2023-05-22T10:22:01.970Z,12.26
2023-05-22T10:23:02.655Z,16.39
2023-05-22T10:24:02.019Z,17.90
2023-05-22T10:25:02.532Z,15.55
2023-05-22T10:26:02.122Z,12.82
2023-05-22T10:27:02.199Z,10.41
2023-05-22T10:28:02.251Z,10.51
2023-05-22T10:29:02.359Z,11.09
2023-05-22T10:30:02.555Z,10.93
2023-05-22T10:31:02.396Z,10.93
2023-05-22T10:32:02.482Z,11.17
2023-05-22T10:33:02.635Z,11.35
2023-05-22T10:34:02.619Z,11.10
2023-05-22T10:35:02.606Z,10.07
2023-05-22T10:36:02.626Z,8.73
2023-05-22T10:37:13.138Z,5.99
2023-05-22T10:38:04.053Z,5.87
2023-05-22T10:39:02.751Z,5.09
2023-05-22T10:40:02.644Z,4.74
2023-05-22T10:41:02.662Z,3.76
2023-05-22T10:42:02.657Z,3.91
2023-05-22T10:43:03.081Z,3.97
2023-05-22T10:44:02.641Z,3.95
2023-05-22T10:45:02.632Z,3.67
2023-05-22T10:46:02.657Z,3.74
2023-05-22T10:47:02.687Z,3.41
2023-05-22T10:48:03.138Z,3.63
2023-05-22T10:49:02.809Z,3.80
2023-05-22T10:50:02.865Z,3.72
2023-05-22T10:51:02.897Z,3.44
2023-05-22T10:52:02.905Z,3.58
2023-05-22T10:53:02.967Z,3.48
2023-05-22T10:54:03.016Z,3.07
2023-05-22T10:55:03.092Z,2.89
2023-05-22T10:56:03.166Z,2.95
2023-05-22T10:57:03.091Z,2.85
2023-05-22T10:58:05.120Z,2.98
2023-05-22T10:59:03.184Z,2.82
2023-05-22T11:00:03.194Z,2.89
2023-05-22T11:01:03.285Z,2.89
2023-05-22T11:02:03.347Z,2.77
2023-05-22T11:03:10.069Z,2.68
2023-05-22T11:04:04.574Z,2.69
2023-05-22T11:05:03.520Z,2.67
2023-05-22T11:06:03.583Z,2.63
2023-05-22T11:07:03.324Z,2.51
2023-05-22T11:08:03.272Z,2.46
2023-05-22T11:09:03.305Z,2.44
2023-05-22T11:10:03.300Z,2.12
2023-05-22T11:11:04.864Z,2.23
2023-05-22T11:12:03.265Z,2.30
2023-05-22T11:13:03.274Z,2.65
2023-05-22T11:14:03.248Z,2.38
2023-05-22T11:15:03.287Z,2.25
2023-05-22T11:16:03.234Z,2.30
2023-05-22T11:17:03.364Z,2.23
2023-05-22T11:18:03.258Z,2.42
2023-05-22T11:20:03.317Z,2.56
2023-05-22T11:21:03.225Z,2.66
2023-05-22T11:22:03.257Z,2.34
2023-05-22T11:23:03.217Z,2.24
2023-05-22T11:24:03.594Z,2.21
2023-05-22T11:25:03.294Z,1.95
2023-05-22T11:26:03.282Z,1.83
2023-05-22T11:27:03.415Z,1.52
2023-05-22T11:28:03.308Z,1.36
2023-05-22T11:29:03.390Z,1.08
2023-05-22T11:30:03.372Z,0.95
2023-05-22T11:31:03.512Z,0.80
2023-05-22T11:32:03.460Z,0.69
2023-05-22T11:33:03.521Z,0.61
2023-05-22T11:34:03.504Z,0.59
2023-05-22T11:35:03.637Z,0.53
2023-05-22T11:36:03.630Z,0.51
2023-05-22T11:37:03.625Z,0.50
2023-05-22T11:38:03.682Z,0.50
2023-05-22T11:39:03.761Z,0.51
2023-05-22T11:40:03.769Z,0.50
2023-05-22T11:41:03.806Z,0.51
2023-05-22T11:42:03.890Z,0.53
2023-05-22T11:43:03.936Z,0.52
2023-05-22T11:44:04.001Z,0.51
2023-05-22T11:45:04.054Z,0.51
2023-05-22T11:46:04.190Z,0.50
2023-05-22T11:47:04.154Z,0.50
2023-05-22T11:48:04.354Z,0.51
2023-05-22T11:49:04.334Z,0.50
2023-05-22T11:50:04.401Z,0.51
2023-05-22T11:51:04.405Z,0.51
2023-05-22T11:52:04.468Z,0.52
2023-05-22T11:53:04.571Z,0.48
2023-05-22T11:54:04.632Z,0.52
2023-05-22T11:55:04.667Z,0.50
2023-05-22T11:56:04.690Z,0.53
2023-05-22T11:57:04.732Z,0.52
2023-05-22T11:58:04.817Z,0.53
2023-05-22T11:59:04.938Z,0.57
2023-05-22T12:00:04.933Z,0.57
2023-05-22T12:01:04.984Z,0.34
2023-05-22T12:02:05.037Z,0.39
2023-05-22T12:03:05.206Z,0.45
2023-05-22T12:04:05.259Z,0.46
2023-05-22T12:05:05.181Z,0.54
2023-05-22T12:06:05.385Z,0.55
2023-05-22T12:07:05.277Z,0.59
2023-05-22T12:08:05.311Z,0.61
2023-05-22T12:09:05.329Z,0.49
2023-05-22T12:10:05.417Z,0.51
2023-05-22T12:11:05.409Z,0.55
2023-05-22T12:12:05.451Z,0.56
2023-05-22T12:13:05.453Z,0.48
2023-05-22T12:14:05.479Z,0.50
2023-05-22T12:15:05.614Z,0.51
2023-05-22T12:16:05.592Z,0.55
2023-05-22T12:17:05.576Z,0.45
2023-05-22T12:18:05.638Z,0.44
2023-05-22T12:19:05.626Z,0.44
2023-05-22T12:20:05.762Z,0.50
2023-05-22T12:21:05.708Z,0.52
2023-05-22T12:22:05.800Z,0.52
2023-05-22T12:23:05.797Z,0.56
2023-05-22T12:24:05.831Z,0.52
2023-05-22T12:25:05.909Z,0.56
2023-05-22T12:26:05.942Z,0.55
2023-05-22T12:27:05.957Z,0.57
2023-05-22T12:28:06.042Z,0.60
2023-05-22T12:29:06.028Z,0.60
2023-05-22T12:30:06.185Z,0.48
2023-05-22T12:31:06.213Z,0.55
2023-05-22T12:32:06.218Z,0.51
2023-05-22T12:33:06.214Z,0.57
2023-05-22T12:34:06.285Z,0.64
2023-05-22T12:35:06.329Z,0.53
2023-05-22T12:36:06.329Z,0.53
2023-05-22T12:37:06.441Z,0.57
2023-05-22T12:38:06.408Z,0.55
2023-05-22T12:39:06.440Z,0.49
2023-05-22T12:40:06.417Z,0.50
2023-05-22T12:41:06.425Z,0.47
2023-05-22T12:42:06.443Z,0.54
2023-05-22T12:43:06.465Z,0.55
2023-05-22T12:44:06.531Z,0.53
2023-05-22T12:45:06.472Z,0.51
2023-05-22T12:46:06.506Z,0.51
2023-05-22T12:47:06.546Z,0.54
2023-05-22T12:48:06.627Z,0.50
2023-05-22T12:49:06.491Z,0.53
2023-05-22T12:50:06.435Z,0.60
2023-05-22T12:51:06.553Z,0.64
2023-05-22T12:52:06.453Z,0.61
2023-05-22T12:53:06.454Z,0.62
2023-05-22T12:54:06.453Z,0.57
2023-05-22T12:55:06.472Z,0.56
2023-05-22T12:56:06.478Z,0.59
2023-05-22T12:57:06.551Z,0.51
2023-05-22T12:58:06.600Z,0.52
2023-05-22T12:59:06.559Z,0.60
2023-05-22T13:00:06.570Z,0.56
2023-05-22T13:01:06.622Z,0.58
2023-05-22T13:02:06.688Z,0.62
2023-05-22T13:03:06.764Z,0.57
2023-05-22T13:04:06.594Z,0.69
2023-05-22T13:05:06.628Z,0.63
2023-05-22T13:06:06.635Z,0.60
2023-05-22T13:07:06.694Z,0.55
2023-05-22T13:08:06.614Z,0.57
2023-05-22T13:09:06.752Z,0.62
2023-05-22T13:10:06.635Z,0.63
2023-05-22T13:11:06.636Z,0.66
2023-05-22T13:12:06.616Z,0.75
2023-05-22T13:13:06.594Z,0.73
2023-05-22T13:14:07.178Z,0.69
2023-05-22T13:15:06.587Z,0.82
2023-05-22T13:16:06.761Z,0.77
2023-05-22T13:17:06.667Z,1.03
2023-05-22T13:18:06.781Z,1.31
2023-05-22T13:19:06.747Z,1.65
2023-05-22T13:20:06.636Z,1.28
2023-05-22T13:21:06.707Z,1.39